»·PEaware :: ASH5820 KPSP-KPHX

ASH5820 :: KPSP-KPHX

FLIGHT INFORMATION

Flight Status: Arrived
Operator:
Mesa Airlines
More flights by this operator :: More flights under this callsign
Pilot: Evan H. (11783)
Aircraft: CANADAIR CL-600 CRJ-900
(CRJ9)
More flights by this aircraft type
Origin: KPSP Palm Springs Intl
United States
Destination: KPHX Phoenix Sky Harbor Intl
United States
More flights between these airports :: More routes between these airports
Route: +CATH1 PSP BLH HYDRR1
File this flight plan on PilotEdge
Remarks: PBN / A1B1C1D1L1O1S1 NAV / RNVD1E2A1 DOF / 170916 REG / N215AG EET / KZAB0019 RVR / 200
Altitude:
(Current/Filed)
25,000ft
Speed:
(Current/Filed)
455kts
Departed: 16-Sep-17 11:56 AM
Arrived: 16-Sep-17 12:43 PM
Distance/Time
Traveled:
227nm/0:47
Distance/Time
To Go:
Arrived

Flight Plot

Page will automatically refresh every two minutes.

Flight plan parsing failed; only flown route is shown


Map Options




Map Legend


Flown Route
Filed Route
Departure Airport
Arrival Airport
Navaid (VOR, NDB)
Fix

Horizontal Profiles

Position Reports

Time Latitude Longitude Heading Altitude Ground
Speed
16-Sep-17 11:22 33.821190 -116.506817 314 484ft 0kts
16-Sep-17 11:23 33.821190 -116.506817 314 484ft 0kts
16-Sep-17 11:24 33.821190 -116.506817 314 484ft 0kts
16-Sep-17 11:25 33.821190 -116.506817 314 484ft 0kts
16-Sep-17 11:26 33.821190 -116.506817 314 484ft 0kts
16-Sep-17 11:27 33.821190 -116.506817 314 484ft 0kts
16-Sep-17 11:28 33.821190 -116.506817 314 484ft 0kts
16-Sep-17 11:29 33.821190 -116.506817 314 484ft 0kts
16-Sep-17 11:30 33.821190 -116.506817 314 484ft 0kts
16-Sep-17 11:31 33.821190 -116.506817 314 484ft 0kts
16-Sep-17 11:32 33.821190 -116.506817 314 484ft 0kts
16-Sep-17 11:33 33.821190 -116.506817 314 484ft 0kts
16-Sep-17 11:34 33.821190 -116.506817 314 484ft 0kts
16-Sep-17 11:35 33.821190 -116.506817 314 484ft 0kts
16-Sep-17 11:36 33.821190 -116.506817 314 484ft 0kts
16-Sep-17 11:37 33.821190 -116.506817 314 484ft 0kts
16-Sep-17 11:38 33.821190 -116.506817 314 484ft 0kts
16-Sep-17 11:39 33.821190 -116.506817 314 484ft 0kts
16-Sep-17 11:40 33.821190 -116.506817 314 484ft 0kts
16-Sep-17 11:41 33.821190 -116.506817 314 484ft 0kts
16-Sep-17 11:42 33.821190 -116.506817 314 484ft 0kts
16-Sep-17 11:43 33.821190 -116.506817 314 484ft 0kts
16-Sep-17 11:44 33.821190 -116.506817 314 484ft 0kts
16-Sep-17 11:45 33.821190 -116.506817 314 484ft 0kts
16-Sep-17 11:46 33.821190 -116.506817 314 484ft 0kts
16-Sep-17 11:47 33.820969 -116.506469 299 484ft 2kts
16-Sep-17 11:48 33.820565 -116.506138 0 484ft 0kts
16-Sep-17 11:49 33.820567 -116.506138 0 484ft 0kts
16-Sep-17 11:50 33.820569 -116.506138 0 484ft 0kts
16-Sep-17 11:51 33.820571 -116.506138 0 484ft 0kts
16-Sep-17 11:52 33.820573 -116.506138 0 484ft 0kts
16-Sep-17 11:53 33.820683 -116.506138 359 484ft 0kts
16-Sep-17 11:54 33.820708 -116.506138 359 484ft 2kts
16-Sep-17 11:55 33.822259 -116.505487 45 484ft 5kts
16-Sep-17 11:56 33.820160 -116.501243 143 484ft 27kts
16-Sep-17 11:57 33.818535 -116.499172 90 484ft 0kts
16-Sep-17 11:58 33.818535 -116.499169 90 484ft 0kts
16-Sep-17 11:59 33.819147 -116.498316 333 484ft 9kts
16-Sep-17 12:00 33.837720 -116.514375 326 1050ft 187kts
16-Sep-17 12:01 33.879350 -116.548893 330 4976ft 185kts
16-Sep-17 12:02 33.906867 -116.513206 97 7599ft 197kts
16-Sep-17 12:03 33.877142 -116.447566 117 10308ft 238kts
16-Sep-17 12:04 33.847651 -116.373954 104 13016ft 274kts
16-Sep-17 12:05 33.831191 -116.260589 99 13018ft 411kts
16-Sep-17 12:06 33.812307 -116.136396 101 13803ft 320kts
16-Sep-17 12:07 33.795407 -116.029287 100 12897ft 327kts
16-Sep-17 12:08 33.779182 -115.917487 101 13159ft 344kts
16-Sep-17 12:09 33.762185 -115.805517 101 13974ft 340kts
16-Sep-17 12:10 33.744956 -115.692519 101 14741ft 353kts
16-Sep-17 12:11 33.725516 -115.568151 102 17787ft 381kts
16-Sep-17 12:12 33.705594 -115.442798 101 21125ft 385kts
16-Sep-17 12:13 33.685386 -115.314194 101 23682ft 399kts
16-Sep-17 12:14 33.663968 -115.179026 101 24926ft 435kts
16-Sep-17 12:15 33.640771 -115.033275 101 24921ft 450kts
16-Sep-17 12:16 33.616832 -114.884331 102 24912ft 460kts
16-Sep-17 12:17 33.591657 -114.732592 103 24913ft 468kts
16-Sep-17 12:18 33.560948 -114.579262 104 24913ft 475kts
16-Sep-17 12:19 33.531220 -114.424564 104 24861ft 468kts
16-Sep-17 12:20 33.503761 -114.285048 104 23892ft 415kts
16-Sep-17 12:21 33.477609 -114.152925 105 22921ft 382kts
16-Sep-17 12:22 33.453924 -114.036634 105 22918ft 358kts
16-Sep-17 12:23 33.427556 -113.910260 108 22927ft 424kts
16-Sep-17 12:24 33.397356 -113.769987 103 21683ft 424kts
16-Sep-17 12:25 33.372144 -113.636193 105 20179ft 402kts
16-Sep-17 12:26 33.347608 -113.511463 105 19007ft 360kts
16-Sep-17 12:27 33.319254 -113.408665 138 18934ft 294kts
16-Sep-17 12:28 33.281294 -113.332646 102 18312ft 309kts
16-Sep-17 12:29 33.275954 -113.219279 91 16129ft 349kts
16-Sep-17 12:30 33.275456 -113.107434 94 15002ft 322kts
16-Sep-17 12:31 33.275268 -112.998355 87 14370ft 332kts
16-Sep-17 12:32 33.279039 -112.890212 91 12809ft 315kts
16-Sep-17 12:33 33.289775 -112.791942 68 10810ft 290kts
16-Sep-17 12:34 33.322907 -112.708896 66 10005ft 264kts
16-Sep-17 12:35 33.352050 -112.630454 67 9513ft 251kts
16-Sep-17 12:36 33.380835 -112.556938 67 8141ft 233kts
16-Sep-17 12:37 33.405339 -112.493159 69 7994ft 197kts
16-Sep-17 12:38 33.429330 -112.427672 65 6655ft 219kts
16-Sep-17 12:39 33.432058 -112.362309 84 5374ft 188kts
16-Sep-17 12:40 33.438546 -112.312742 87 4715ft 147kts
16-Sep-17 12:41 33.439411 -112.261564 93 3931ft 158kts
16-Sep-17 12:42 33.440900 -112.212362 90 3447ft 162kts
16-Sep-17 12:43 33.440687 -112.156822 93 3117ft 160kts
16-Sep-17 12:44 33.440440 -112.103846 92 2345ft 157kts
16-Sep-17 12:45 33.440936 -112.055535 90 1563ft 146kts
16-Sep-17 12:46 33.440826 -112.010703 91 1142ft 61kts
16-Sep-17 12:47 33.440363 -112.007498 140 1142ft 0kts
16-Sep-17 12:48 33.438983 -112.005092 90 1142ft 27kts
16-Sep-17 12:49 33.438934 -111.996205 117 1142ft 18kts
16-Sep-17 12:50 33.438110 -111.995079 119 1142ft 0kts

Navigation Log

Ident Type
Flight plan parsing failed, navigation log unavailable